sensor_id;sensor_type;location;lat;lon;timestamp;P1;durP1;ratioP1;P2;durP2;ratioP2
9409;SDS011;4744;52.576;13.568;2023-11-18T00:01:43;6.40;;;5.80;;
9409;SDS011;4744;52.576;13.568;2023-11-18T00:04:10;6.60;;;5.90;;
9409;SDS011;4744;52.576;13.568;2023-11-18T00:06:40;6.88;;;6.18;;
9409;SDS011;4744;52.576;13.568;2023-11-18T00:09:09;6.68;;;5.40;;
9409;SDS011;4744;52.576;13.568;2023-11-18T00:11:39;7.28;;;6.55;;
9409;SDS011;4744;52.576;13.568;2023-11-18T00:14:07;6.40;;;5.80;;
9409;SDS011;4744;52.576;13.568;2023-11-18T00:16:35;6.10;;;5.50;;
9409;SDS011;4744;52.576;13.568;2023-11-18T00:19:02;7.05;;;6.10;;
9409;SDS011;4744;52.576;13.568;2023-11-18T00:21:30;6.35;;;5.75;;
9409;SDS011;4744;52.576;13.568;2023-11-18T00:23:57;6.68;;;5.65;;
9409;SDS011;4744;52.576;13.568;2023-11-18T00:26:23;7.47;;;5.90;;
9409;SDS011;4744;52.576;13.568;2023-11-18T00:28:55;6.10;;;5.55;;
9409;SDS011;4744;52.576;13.568;2023-11-18T00:31:22;5.88;;;5.38;;
9409;SDS011;4744;52.576;13.568;2023-11-18T00:33:50;5.93;;;5.43;;
9409;SDS011;4744;52.576;13.568;2023-11-18T00:36:17;8.45;;;5.90;;
9409;SDS011;4744;52.576;13.568;2023-11-18T00:38:44;7.55;;;5.53;;
9409;SDS011;4744;52.576;13.568;2023-11-18T00:41:12;5.60;;;5.20;;
9409;SDS011;4744;52.576;13.568;2023-11-18T00:43:39;5.72;;;5.22;;
9409;SDS011;4744;52.576;13.568;2023-11-18T00:46:07;5.70;;;4.97;;
9409;SDS011;4744;52.576;13.568;2023-11-18T00:48:34;6.45;;;5.30;;
9409;SDS011;4744;52.576;13.568;2023-11-18T00:51:01;6.05;;;5.15;;
9409;SDS011;4744;52.576;13.568;2023-11-18T00:53:29;5.50;;;5.00;;
9409;SDS011;4744;52.576;13.568;2023-11-18T00:55:56;5.82;;;5.32;;
9409;SDS011;4744;52.576;13.568;2023-11-18T00:58:23;6.25;;;5.30;;
9409;SDS011;4744;52.576;13.568;2023-11-18T01:00:50;5.82;;;5.32;;
9409;SDS011;4744;52.576;13.568;2023-11-18T01:03:18;5.60;;;4.97;;
9409;SDS011;4744;52.576;13.568;2023-11-18T01:05:45;6.45;;;5.35;;
9409;SDS011;4744;52.576;13.568;2023-11-18T01:08:12;5.88;;;4.93;;
9409;SDS011;4744;52.576;13.568;2023-11-18T01:10:39;5.60;;;5.00;;
9409;SDS011;4744;52.576;13.568;2023-11-18T01:13:07;5.75;;;5.20;;
9409;SDS011;4744;52.576;13.568;2023-11-18T01:15:34;6.10;;;5.53;;
9409;SDS011;4744;52.576;13.568;2023-11-18T01:18:01;6.18;;;5.57;;
9409;SDS011;4744;52.576;13.568;2023-11-18T01:20:29;5.68;;;5.18;;
9409;SDS011;4744;52.576;13.568;2023-11-18T01:22:56;5.97;;;5.38;;
9409;SDS011;4744;52.576;13.568;2023-11-18T01:25:23;5.78;;;5.28;;
9409;SDS011;4744;52.576;13.568;2023-11-18T01:27:50;6.63;;;5.53;;
9409;SDS011;4744;52.576;13.568;2023-11-18T01:30:17;6.57;;;5.53;;
9409;SDS011;4744;52.576;13.568;2023-11-18T01:32:44;6.07;;;5.57;;
9409;SDS011;4744;52.576;13.568;2023-11-18T01:35:11;6.07;;;5.50;;
9409;SDS011;4744;52.576;13.568;2023-11-18T01:37:39;6.20;;;5.60;;
9409;SDS011;4744;52.576;13.568;2023-11-18T01:40:07;6.65;;;5.90;;
9409;SDS011;4744;52.576;13.568;2023-11-18T01:42:37;7.22;;;5.40;;
9409;SDS011;4744;52.576;13.568;2023-11-18T01:45:04;7.03;;;5.28;;
9409;SDS011;4744;52.576;13.568;2023-11-18T01:47:36;6.43;;;5.78;;
9409;SDS011;4744;52.576;13.568;2023-11-18T01:50:04;6.85;;;6.00;;
9409;SDS011;4744;52.576;13.568;2023-11-18T01:52:34;5.88;;;5.25;;
9409;SDS011;4744;52.576;13.568;2023-11-18T01:55:03;5.43;;;4.93;;
9409;SDS011;4744;52.576;13.568;2023-11-18T01:57:32;5.95;;;5.45;;
9409;SDS011;4744;52.576;13.568;2023-11-18T01:59:59;5.60;;;5.10;;
9409;SDS011;4744;52.576;13.568;2023-11-18T02:02:31;6.20;;;5.60;;
9409;SDS011;4744;52.576;13.568;2023-11-18T02:04:59;5.97;;;5.35;;
9409;SDS011;4744;52.576;13.568;2023-11-18T02:07:27;6.70;;;5.72;;
9409;SDS011;4744;52.576;13.568;2023-11-18T02:09:54;5.70;;;5.15;;
9409;SDS011;4744;52.576;13.568;2023-11-18T02:12:25;6.00;;;5.45;;
9409;SDS011;4744;52.576;13.568;2023-11-18T02:14:59;5.93;;;5.18;;
9409;SDS011;4744;52.576;13.568;2023-11-18T02:17:29;5.70;;;5.20;;
9409;SDS011;4744;52.576;13.568;2023-11-18T02:19:57;6.63;;;5.40;;
9409;SDS011;4744;52.576;13.568;2023-11-18T02:22:25;6.97;;;5.70;;
9409;SDS011;4744;52.576;13.568;2023-11-18T02:24:52;6.50;;;5.05;;
9409;SDS011;4744;52.576;13.568;2023-11-18T02:27:21;6.40;;;5.15;;
9409;SDS011;4744;52.576;13.568;2023-11-18T02:29:51;5.85;;;5.25;;
9409;SDS011;4744;52.576;13.568;2023-11-18T02:32:20;5.07;;;4.57;;
9409;SDS011;4744;52.576;13.568;2023-11-18T02:35:05;5.70;;;5.20;;
9409;SDS011;4744;52.576;13.568;2023-11-18T02:37:38;5.68;;;5.00;;
9409;SDS011;4744;52.576;13.568;2023-11-18T02:40:07;5.30;;;4.82;;
9409;SDS011;4744;52.576;13.568;2023-11-18T02:42:41;5.72;;;5.10;;
9409;SDS011;4744;52.576;13.568;2023-11-18T02:45:11;5.32;;;4.78;;
9409;SDS011;4744;52.576;13.568;2023-11-18T02:47:41;5.55;;;4.97;;
9409;SDS011;4744;52.576;13.568;2023-11-18T02:50:10;6.40;;;5.40;;
9409;SDS011;4744;52.576;13.568;2023-11-18T02:52:39;5.22;;;4.72;;
9409;SDS011;4744;52.576;13.568;2023-11-18T02:55:07;6.13;;;4.85;;
9409;SDS011;4744;52.576;13.568;2023-11-18T02:57:34;5.55;;;4.93;;
9409;SDS011;4744;52.576;13.568;2023-11-18T03:00:03;5.80;;;5.10;;
9409;SDS011;4744;52.576;13.568;2023-11-18T03:02:36;5.68;;;5.10;;
9409;SDS011;4744;52.576;13.568;2023-11-18T03:05:04;6.93;;;5.25;;
9409;SDS011;4744;52.576;13.568;2023-11-18T03:07:32;6.10;;;5.50;;
9409;SDS011;4744;52.576;13.568;2023-11-18T03:09:59;5.70;;;5.20;;
9409;SDS011;4744;52.576;13.568;2023-11-18T03:12:26;5.90;;;5.40;;
9409;SDS011;4744;52.576;13.568;2023-11-18T03:14:53;5.93;;;4.90;;
9409;SDS011;4744;52.576;13.568;2023-11-18T03:17:21;5.57;;;5.07;;
9409;SDS011;4744;52.576;13.568;2023-11-18T03:19:48;5.85;;;5.22;;
9409;SDS011;4744;52.576;13.568;2023-11-18T03:22:16;7.55;;;5.63;;
9409;SDS011;4744;52.576;13.568;2023-11-18T03:24:43;6.78;;;5.38;;
9409;SDS011;4744;52.576;13.568;2023-11-18T03:27:10;5.68;;;5.18;;
9409;SDS011;4744;52.576;13.568;2023-11-18T03:29:37;5.93;;;5.32;;
9409;SDS011;4744;52.576;13.568;2023-11-18T03:32:05;6.75;;;5.47;;
9409;SDS011;4744;52.576;13.568;2023-11-18T03:34:33;6.10;;;5.50;;
9409;SDS011;4744;52.576;13.568;2023-11-18T03:37:01;6.57;;;5.68;;
9409;SDS011;4744;52.576;13.568;2023-11-18T03:39:28;5.72;;;5.22;;
9409;SDS011;4744;52.576;13.568;2023-11-18T03:41:55;6.35;;;5.38;;
9409;SDS011;4744;52.576;13.568;2023-11-18T03:44:23;5.13;;;4.63;;
9409;SDS011;4744;52.576;13.568;2023-11-18T03:46:50;5.18;;;4.68;;
9409;SDS011;4744;52.576;13.568;2023-11-18T03:49:17;5.63;;;5.13;;
9409;SDS011;4744;52.576;13.568;2023-11-18T03:51:46;5.13;;;4.63;;
9409;SDS011;4744;52.576;13.568;2023-11-18T03:54:13;5.60;;;5.10;;
9409;SDS011;4744;52.576;13.568;2023-11-18T03:56:40;5.20;;;4.55;;
9409;SDS011;4744;52.576;13.568;2023-11-18T03:59:07;5.93;;;5.28;;
9409;SDS011;4744;52.576;13.568;2023-11-18T04:01:34;5.22;;;4.72;;
9409;SDS011;4744;52.576;13.568;2023-11-18T04:04:01;5.55;;;4.80;;
9409;SDS011;4744;52.576;13.568;2023-11-18T04:06:29;4.97;;;4.53;;
9409;SDS011;4744;52.576;13.568;2023-11-18T04:08:57;5.13;;;4.55;;
9409;SDS011;4744;52.576;13.568;2023-11-18T04:11:24;5.75;;;5.00;;
9409;SDS011;4744;52.576;13.568;2023-11-18T04:13:51;5.75;;;5.10;;
9409;SDS011;4744;52.576;13.568;2023-11-18T04:16:18;5.55;;;5.05;;
9409;SDS011;4744;52.576;13.568;2023-11-18T04:18:45;4.57;;;4.18;;
9409;SDS011;4744;52.576;13.568;2023-11-18T04:21:12;4.90;;;4.50;;
9409;SDS011;4744;52.576;13.568;2023-11-18T04:23:40;7.03;;;4.88;;
9409;SDS011;4744;52.576;13.568;2023-11-18T04:26:09;5.80;;;4.88;;
9409;SDS011;4744;52.576;13.568;2023-11-18T04:28:36;4.93;;;4.50;;
9409;SDS011;4744;52.576;13.568;2023-11-18T04:31:03;5.10;;;4.60;;
9409;SDS011;4744;52.576;13.568;2023-11-18T04:33:31;4.90;;;4.40;;
9409;SDS011;4744;52.576;13.568;2023-11-18T04:35:59;4.55;;;4.15;;
9409;SDS011;4744;52.576;13.568;2023-11-18T04:38:26;6.05;;;4.38;;
9409;SDS011;4744;52.576;13.568;2023-11-18T04:40:53;6.47;;;4.70;;
9409;SDS011;4744;52.576;13.568;2023-11-18T04:43:21;5.07;;;3.88;;
9409;SDS011;4744;52.576;13.568;2023-11-18T04:45:49;4.80;;;4.30;;
9409;SDS011;4744;52.576;13.568;2023-11-18T04:48:16;5.40;;;4.10;;
9409;SDS011;4744;52.576;13.568;2023-11-18T04:50:43;4.70;;;4.20;;
9409;SDS011;4744;52.576;13.568;2023-11-18T04:53:10;3.92;;;3.53;;
9409;SDS011;4744;52.576;13.568;2023-11-18T04:55:37;3.70;;;3.40;;
9409;SDS011;4744;52.576;13.568;2023-11-18T04:58:05;4.13;;;3.72;;
9409;SDS011;4744;52.576;13.568;2023-11-18T05:00:33;4.88;;;4.00;;
9409;SDS011;4744;52.576;13.568;2023-11-18T05:03:00;5.20;;;4.00;;
9409;SDS011;4744;52.576;13.568;2023-11-18T05:05:28;4.32;;;3.92;;
9409;SDS011;4744;52.576;13.568;2023-11-18T05:07:55;4.35;;;3.95;;
9409;SDS011;4744;52.576;13.568;2023-11-18T05:10:22;4.22;;;3.92;;
9409;SDS011;4744;52.576;13.568;2023-11-18T05:12:49;4.63;;;4.22;;
9409;SDS011;4744;52.576;13.568;2023-11-18T05:15:20;4.10;;;3.78;;
9409;SDS011;4744;52.576;13.568;2023-11-18T05:17:51;4.07;;;3.65;;
9409;SDS011;4744;52.576;13.568;2023-11-18T05:20:18;4.40;;;4.00;;
9409;SDS011;4744;52.576;13.568;2023-11-18T05:22:46;4.25;;;3.88;;
9409;SDS011;4744;52.576;13.568;2023-11-18T05:25:13;4.82;;;4.43;;
9409;SDS011;4744;52.576;13.568;2023-11-18T05:27:40;5.70;;;4.90;;
9409;SDS011;4744;52.576;13.568;2023-11-18T05:30:08;4.65;;;4.22;;
9409;SDS011;4744;52.576;13.568;2023-11-18T05:32:36;4.70;;;4.30;;
9409;SDS011;4744;52.576;13.568;2023-11-18T05:35:05;4.80;;;4.40;;
9409;SDS011;4744;52.576;13.568;2023-11-18T05:37:32;4.82;;;4.43;;
9409;SDS011;4744;52.576;13.568;2023-11-18T05:40:03;5.32;;;4.85;;
9409;SDS011;4744;52.576;13.568;2023-11-18T05:42:32;5.25;;;4.75;;
9409;SDS011;4744;52.576;13.568;2023-11-18T05:45:01;5.93;;;5.22;;
9409;SDS011;4744;52.576;13.568;2023-11-18T05:47:29;6.32;;;5.20;;
9409;SDS011;4744;52.576;13.568;2023-11-18T05:49:56;5.95;;;5.35;;
9409;SDS011;4744;52.576;13.568;2023-11-18T05:52:25;5.85;;;5.22;;
9409;SDS011;4744;52.576;13.568;2023-11-18T05:54:52;7.28;;;5.50;;
9409;SDS011;4744;52.576;13.568;2023-11-18T05:57:19;5.50;;;4.97;;
9409;SDS011;4744;52.576;13.568;2023-11-18T05:59:46;5.70;;;5.15;;
9409;SDS011;4744;52.576;13.568;2023-11-18T06:02:14;5.72;;;5.07;;
9409;SDS011;4744;52.576;13.568;2023-11-18T06:04:43;7.55;;;5.57;;
9409;SDS011;4744;52.576;13.568;2023-11-18T06:07:10;5.65;;;4.97;;
9409;SDS011;4744;52.576;13.568;2023-11-18T06:09:39;5.55;;;5.07;;
9409;SDS011;4744;52.576;13.568;2023-11-18T06:12:07;5.68;;;5.07;;
9409;SDS011;4744;52.576;13.568;2023-11-18T06:14:35;5.15;;;4.68;;
9409;SDS011;4744;52.576;13.568;2023-11-18T06:17:02;4.55;;;4.15;;
9409;SDS011;4744;52.576;13.568;2023-11-18T06:19:32;4.55;;;4.07;;
9409;SDS011;4744;52.576;13.568;2023-11-18T06:21:59;4.40;;;4.05;;
9409;SDS011;4744;52.576;13.568;2023-11-18T06:24:26;3.97;;;3.22;;
9409;SDS011;4744;52.576;13.568;2023-11-18T06:26:54;3.63;;;3.33;;
9409;SDS011;4744;52.576;13.568;2023-11-18T06:29:21;3.60;;;3.15;;
9409;SDS011;4744;52.576;13.568;2023-11-18T06:31:48;3.88;;;3.00;;
9409;SDS011;4744;52.576;13.568;2023-11-18T06:34:15;3.40;;;3.10;;
9409;SDS011;4744;52.576;13.568;2023-11-18T06:36:43;3.50;;;3.20;;
9409;SDS011;4744;52.576;13.568;2023-11-18T06:39:10;3.22;;;2.90;;
9409;SDS011;4744;52.576;13.568;2023-11-18T06:41:38;3.08;;;2.85;;
9409;SDS011;4744;52.576;13.568;2023-11-18T06:44:14;4.00;;;2.80;;
9409;SDS011;4744;52.576;13.568;2023-11-18T06:46:43;4.28;;;3.13;;
9409;SDS011;4744;52.576;13.568;2023-11-18T06:49:10;3.85;;;2.97;;
9409;SDS011;4744;52.576;13.568;2023-11-18T06:51:40;3.53;;;3.22;;
9409;SDS011;4744;52.576;13.568;2023-11-18T06:54:07;3.85;;;2.88;;
9409;SDS011;4744;52.576;13.568;2023-11-18T06:56:35;4.55;;;4.15;;
9409;SDS011;4744;52.576;13.568;2023-11-18T06:59:04;4.30;;;3.90;;
9409;SDS011;4744;52.576;13.568;2023-11-18T07:01:33;4.93;;;4.40;;
9409;SDS011;4744;52.576;13.568;2023-11-18T07:04:00;5.72;;;5.18;;
9409;SDS011;4744;52.576;13.568;2023-11-18T07:06:27;5.10;;;4.70;;
9409;SDS011;4744;52.576;13.568;2023-11-18T07:08:54;6.00;;;5.40;;
9409;SDS011;4744;52.576;13.568;2023-11-18T07:11:25;6.00;;;5.40;;
9409;SDS011;4744;52.576;13.568;2023-11-18T07:13:52;6.82;;;5.28;;
9409;SDS011;4744;52.576;13.568;2023-11-18T07:16:21;7.38;;;6.18;;
9409;SDS011;4744;52.576;13.568;2023-11-18T07:18:50;7.63;;;6.80;;
9409;SDS011;4744;52.576;13.568;2023-11-18T07:21:17;6.97;;;6.28;;
9409;SDS011;4744;52.576;13.568;2023-11-18T07:23:44;7.10;;;6.40;;
9409;SDS011;4744;52.576;13.568;2023-11-18T07:26:11;7.47;;;6.78;;
9409;SDS011;4744;52.576;13.568;2023-11-18T07:28:39;7.65;;;6.85;;
9409;SDS011;4744;52.576;13.568;2023-11-18T07:31:06;8.27;;;6.85;;
9409;SDS011;4744;52.576;13.568;2023-11-18T07:33:34;10.10;;;7.72;;
9409;SDS011;4744;52.576;13.568;2023-11-18T07:36:02;9.27;;;7.32;;
9409;SDS011;4744;52.576;13.568;2023-11-18T07:38:36;7.30;;;6.30;;
9409;SDS011;4744;52.576;13.568;2023-11-18T07:41:03;8.88;;;7.65;;
9409;SDS011;4744;52.576;13.568;2023-11-18T07:43:33;7.90;;;7.10;;
9409;SDS011;4744;52.576;13.568;2023-11-18T07:46:01;7.93;;;7.00;;
9409;SDS011;4744;52.576;13.568;2023-11-18T07:48:28;7.05;;;6.07;;
9409;SDS011;4744;52.576;13.568;2023-11-18T07:50:56;6.88;;;6.07;;
9409;SDS011;4744;52.576;13.568;2023-11-18T07:53:24;6.93;;;6.25;;
9409;SDS011;4744;52.576;13.568;2023-11-18T07:55:54;7.93;;;6.65;;
9409;SDS011;4744;52.576;13.568;2023-11-18T07:58:21;7.45;;;6.75;;
9409;SDS011;4744;52.576;13.568;2023-11-18T08:00:48;7.57;;;6.78;;
9409;SDS011;4744;52.576;13.568;2023-11-18T08:03:15;8.30;;;6.93;;
9409;SDS011;4744;52.576;13.568;2023-11-18T08:05:42;8.35;;;6.63;;
9409;SDS011;4744;52.576;13.568;2023-11-18T08:08:10;8.18;;;6.65;;
9409;SDS011;4744;52.576;13.568;2023-11-18T08:10:39;7.38;;;6.50;;
9409;SDS011;4744;52.576;13.568;2023-11-18T08:13:08;8.63;;;6.70;;
9409;SDS011;4744;52.576;13.568;2023-11-18T08:15:38;7.13;;;6.43;;
9409;SDS011;4744;52.576;13.568;2023-11-18T08:18:05;7.90;;;7.10;;
9409;SDS011;4744;52.576;13.568;2023-11-18T08:20:33;8.30;;;7.03;;
9409;SDS011;4744;52.576;13.568;2023-11-18T08:23:00;8.52;;;6.93;;
9409;SDS011;4744;52.576;13.568;2023-11-18T08:25:27;7.53;;;6.47;;
9409;SDS011;4744;52.576;13.568;2023-11-18T08:27:55;7.32;;;6.45;;
9409;SDS011;4744;52.576;13.568;2023-11-18T08:30:22;9.18;;;7.25;;
9409;SDS011;4744;52.576;13.568;2023-11-18T08:32:49;7.95;;;7.05;;
9409;SDS011;4744;52.576;13.568;2023-11-18T08:35:16;8.75;;;7.75;;
9409;SDS011;4744;52.576;13.568;2023-11-18T08:37:43;8.25;;;6.78;;
9409;SDS011;4744;52.576;13.568;2023-11-18T08:40:11;8.15;;;6.93;;
9409;SDS011;4744;52.576;13.568;2023-11-18T08:42:41;7.38;;;6.68;;
9409;SDS011;4744;52.576;13.568;2023-11-18T08:45:14;7.00;;;6.30;;
9409;SDS011;4744;52.576;13.568;2023-11-18T08:47:43;8.45;;;6.68;;
9409;SDS011;4744;52.576;13.568;2023-11-18T08:50:12;6.25;;;5.65;;
9409;SDS011;4744;52.576;13.568;2023-11-18T08:52:39;6.72;;;5.93;;
9409;SDS011;4744;52.576;13.568;2023-11-18T08:55:09;5.72;;;5.22;;
9409;SDS011;4744;52.576;13.568;2023-11-18T08:57:43;5.68;;;5.07;;
9409;SDS011;4744;52.576;13.568;2023-11-18T09:00:18;5.80;;;5.20;;
9409;SDS011;4744;52.576;13.568;2023-11-18T09:03:00;5.13;;;4.63;;
9409;SDS011;4744;52.576;13.568;2023-11-18T09:05:30;5.18;;;4.47;;
9409;SDS011;4744;52.576;13.568;2023-11-18T09:07:57;4.55;;;4.15;;
9409;SDS011;4744;52.576;13.568;2023-11-18T09:10:25;4.25;;;3.90;;
9409;SDS011;4744;52.576;13.568;2023-11-18T09:12:53;4.70;;;4.30;;
9409;SDS011;4744;52.576;13.568;2023-11-18T09:15:21;4.43;;;4.00;;
9409;SDS011;4744;52.576;13.568;2023-11-18T09:17:48;5.80;;;4.50;;
9409;SDS011;4744;52.576;13.568;2023-11-18T09:20:15;5.05;;;4.60;;
9409;SDS011;4744;52.576;13.568;2023-11-18T09:22:45;4.60;;;4.00;;
9409;SDS011;4744;52.576;13.568;2023-11-18T09:25:13;3.70;;;3.40;;
9409;SDS011;4744;52.576;13.568;2023-11-18T09:27:41;4.35;;;3.35;;
9409;SDS011;4744;52.576;13.568;2023-11-18T09:30:08;2.95;;;2.75;;
9409;SDS011;4744;52.576;13.568;2023-11-18T09:32:40;2.95;;;2.53;;
9409;SDS011;4744;52.576;13.568;2023-11-18T09:35:08;2.70;;;2.50;;
9409;SDS011;4744;52.576;13.568;2023-11-18T09:37:37;4.45;;;4.05;;
9409;SDS011;4744;52.576;13.568;2023-11-18T09:40:06;3.47;;;3.17;;
9409;SDS011;4744;52.576;13.568;2023-11-18T09:42:37;3.60;;;3.30;;
9409;SDS011;4744;52.576;13.568;2023-11-18T09:45:05;3.47;;;3.28;;
9409;SDS011;4744;52.576;13.568;2023-11-18T09:47:42;3.05;;;2.75;;
9409;SDS011;4744;52.576;13.568;2023-11-18T09:50:12;3.00;;;2.80;;
9409;SDS011;4744;52.576;13.568;2023-11-18T09:52:47;2.90;;;2.60;;
9409;SDS011;4744;52.576;13.568;2023-11-18T09:55:21;3.22;;;2.30;;
9409;SDS011;4744;52.576;13.568;2023-11-18T09:57:58;4.03;;;2.35;;
9409;SDS011;4744;52.576;13.568;2023-11-18T10:00:33;3.20;;;2.95;;
9409;SDS011;4744;52.576;13.568;2023-11-18T10:03:08;2.58;;;2.40;;
9409;SDS011;4744;52.576;13.568;2023-11-18T10:05:35;2.55;;;2.35;;
9409;SDS011;4744;52.576;13.568;2023-11-18T10:08:04;2.85;;;2.65;;
9409;SDS011;4744;52.576;13.568;2023-11-18T10:10:31;4.43;;;2.70;;
9409;SDS011;4744;52.576;13.568;2023-11-18T10:13:02;3.03;;;2.83;;
9409;SDS011;4744;52.576;13.568;2023-11-18T10:15:33;2.85;;;2.63;;
9409;SDS011;4744;52.576;13.568;2023-11-18T10:18:00;2.80;;;2.50;;
9409;SDS011;4744;52.576;13.568;2023-11-18T10:20:47;3.08;;;2.75;;
9409;SDS011;4744;52.576;13.568;2023-11-18T10:23:16;2.58;;;2.38;;
9409;SDS011;4744;52.576;13.568;2023-11-18T10:25:46;2.83;;;2.63;;
9409;SDS011;4744;52.576;13.568;2023-11-18T10:28:20;2.75;;;2.60;;
9409;SDS011;4744;52.576;13.568;2023-11-18T10:30:48;2.85;;;2.65;;
9409;SDS011;4744;52.576;13.568;2023-11-18T10:33:16;2.50;;;2.30;;
9409;SDS011;4744;52.576;13.568;2023-11-18T10:35:51;2.97;;;2.78;;
9409;SDS011;4744;52.576;13.568;2023-11-18T10:38:20;2.85;;;2.53;;
9409;SDS011;4744;52.576;13.568;2023-11-18T10:40:50;2.60;;;2.40;;
9409;SDS011;4744;52.576;13.568;2023-11-18T10:43:20;2.60;;;2.40;;
9409;SDS011;4744;52.576;13.568;2023-11-18T10:45:49;3.55;;;2.60;;
9409;SDS011;4744;52.576;13.568;2023-11-18T10:48:17;2.28;;;2.08;;
9409;SDS011;4744;52.576;13.568;2023-11-18T10:50:46;2.63;;;2.45;;
9409;SDS011;4744;52.576;13.568;2023-11-18T10:53:16;2.35;;;2.25;;
9409;SDS011;4744;52.576;13.568;2023-11-18T10:55:44;2.70;;;2.58;;
9409;SDS011;4744;52.576;13.568;2023-11-18T10:58:11;2.33;;;2.10;;
9409;SDS011;4744;52.576;13.568;2023-11-18T11:00:46;3.88;;;2.30;;
9409;SDS011;4744;52.576;13.568;2023-11-18T11:03:14;2.20;;;2.10;;
9409;SDS011;4744;52.576;13.568;2023-11-18T11:05:43;2.60;;;2.40;;
9409;SDS011;4744;52.576;13.568;2023-11-18T11:08:11;2.13;;;1.98;;
9409;SDS011;4744;52.576;13.568;2023-11-18T11:10:42;2.42;;;2.22;;
9409;SDS011;4744;52.576;13.568;2023-11-18T11:13:10;2.60;;;2.40;;
9409;SDS011;4744;52.576;13.568;2023-11-18T11:15:40;3.30;;;3.05;;
9409;SDS011;4744;52.576;13.568;2023-11-18T11:18:15;3.67;;;2.80;;
9409;SDS011;4744;52.576;13.568;2023-11-18T11:20:53;3.10;;;2.80;;
9409;SDS011;4744;52.576;13.568;2023-11-18T11:23:30;3.08;;;2.83;;
9409;SDS011;4744;52.576;13.568;2023-11-18T11:26:13;5.68;;;3.53;;
9409;SDS011;4744;52.576;13.568;2023-11-18T11:28:50;5.32;;;3.00;;
9409;SDS011;4744;52.576;13.568;2023-11-18T11:31:26;3.35;;;3.05;;
9409;SDS011;4744;52.576;13.568;2023-11-18T11:34:02;3.05;;;2.72;;
9409;SDS011;4744;52.576;13.568;2023-11-18T11:36:34;3.50;;;3.20;;
9409;SDS011;4744;52.576;13.568;2023-11-18T11:39:06;3.40;;;3.10;;
9409;SDS011;4744;52.576;13.568;2023-11-18T11:41:41;3.30;;;3.00;;
9409;SDS011;4744;52.576;13.568;2023-11-18T11:44:11;3.38;;;3.08;;
9409;SDS011;4744;52.576;13.568;2023-11-18T11:46:39;3.13;;;2.80;;
9409;SDS011;4744;52.576;13.568;2023-11-18T11:49:08;3.65;;;3.33;;
9409;SDS011;4744;52.576;13.568;2023-11-18T11:51:44;3.40;;;3.05;;
9409;SDS011;4744;52.576;13.568;2023-11-18T11:54:16;4.35;;;3.33;;
9409;SDS011;4744;52.576;13.568;2023-11-18T11:56:48;3.30;;;3.00;;
9409;SDS011;4744;52.576;13.568;2023-11-18T11:59:53;2.97;;;2.78;;
9409;SDS011;4744;52.576;13.568;2023-11-18T12:02:21;3.45;;;3.15;;
9409;SDS011;4744;52.576;13.568;2023-11-18T12:04:51;3.40;;;3.10;;
9409;SDS011;4744;52.576;13.568;2023-11-18T12:07:21;3.10;;;2.90;;
9409;SDS011;4744;52.576;13.568;2023-11-18T12:09:48;2.70;;;2.50;;
9409;SDS011;4744;52.576;13.568;2023-11-18T12:12:21;3.00;;;2.72;;
9409;SDS011;4744;52.576;13.568;2023-11-18T12:14:51;2.33;;;2.20;;
9409;SDS011;4744;52.576;13.568;2023-11-18T12:17:21;2.95;;;2.75;;
9409;SDS011;4744;52.576;13.568;2023-11-18T12:19:49;3.72;;;3.33;;
9409;SDS011;4744;52.576;13.568;2023-11-18T12:22:23;2.95;;;2.75;;
9409;SDS011;4744;52.576;13.568;2023-11-18T12:28:09;3.33;;;3.13;;
9409;SDS011;4744;52.576;13.568;2023-11-18T12:30:43;3.90;;;3.40;;
9409;SDS011;4744;52.576;13.568;2023-11-18T12:42:58;3.25;;;2.95;;
9409;SDS011;4744;52.576;13.568;2023-11-18T12:48:43;5.95;;;5.25;;
9409;SDS011;4744;52.576;13.568;2023-11-18T12:51:11;6.05;;;5.43;;
9409;SDS011;4744;52.576;13.568;2023-11-18T12:53:45;5.88;;;5.25;;
9409;SDS011;4744;52.576;13.568;2023-11-18T12:56:15;5.47;;;4.95;;
9409;SDS011;4744;52.576;13.568;2023-11-18T12:58:45;5.88;;;5.28;;
9409;SDS011;4744;52.576;13.568;2023-11-18T13:01:12;5.50;;;5.00;;
9409;SDS011;4744;52.576;13.568;2023-11-18T13:03:39;5.20;;;4.70;;
9409;SDS011;4744;52.576;13.568;2023-11-18T13:06:09;6.55;;;5.05;;
9409;SDS011;4744;52.576;13.568;2023-11-18T13:08:37;6.15;;;5.00;;
9409;SDS011;4744;52.576;13.568;2023-11-18T13:11:04;5.28;;;4.78;;
9409;SDS011;4744;52.576;13.568;2023-11-18T13:13:37;5.68;;;5.07;;
9409;SDS011;4744;52.576;13.568;2023-11-18T13:16:05;5.78;;;5.20;;
9409;SDS011;4744;52.576;13.568;2023-11-18T13:18:40;5.43;;;4.93;;
9409;SDS011;4744;52.576;13.568;2023-11-18T13:21:14;4.90;;;4.50;;
9409;SDS011;4744;52.576;13.568;2023-11-18T13:23:45;7.18;;;5.68;;
9409;SDS011;4744;52.576;13.568;2023-11-18T13:26:13;5.93;;;5.22;;
9409;SDS011;4744;52.576;13.568;2023-11-18T13:28:40;5.20;;;4.70;;
9409;SDS011;4744;52.576;13.568;2023-11-18T13:31:08;5.00;;;4.50;;
9409;SDS011;4744;52.576;13.568;2023-11-18T13:33:36;6.25;;;5.65;;
9409;SDS011;4744;52.576;13.568;2023-11-18T13:36:04;7.03;;;6.13;;
9409;SDS011;4744;52.576;13.568;2023-11-18T13:38:36;6.10;;;5.20;;
9409;SDS011;4744;52.576;13.568;2023-11-18T13:41:04;5.47;;;4.97;;
9409;SDS011;4744;52.576;13.568;2023-11-18T13:43:43;5.65;;;5.15;;
9409;SDS011;4744;52.576;13.568;2023-11-18T13:46:11;6.10;;;4.70;;
9409;SDS011;4744;52.576;13.568;2023-11-18T13:48:38;5.05;;;4.60;;
9409;SDS011;4744;52.576;13.568;2023-11-18T13:51:06;4.05;;;3.65;;
9409;SDS011;4744;52.576;13.568;2023-11-18T13:53:39;5.88;;;4.38;;
9409;SDS011;4744;52.576;13.568;2023-11-18T13:56:08;5.18;;;4.10;;
9409;SDS011;4744;52.576;13.568;2023-11-18T13:58:35;4.93;;;4.53;;
9409;SDS011;4744;52.576;13.568;2023-11-18T14:01:04;5.68;;;4.03;;
9409;SDS011;4744;52.576;13.568;2023-11-18T14:03:33;4.38;;;3.90;;
9409;SDS011;4744;52.576;13.568;2023-11-18T14:06:02;4.95;;;4.45;;
9409;SDS011;4744;52.576;13.568;2023-11-18T14:08:29;3.88;;;3.47;;
9409;SDS011;4744;52.576;13.568;2023-11-18T14:10:57;4.32;;;3.92;;
9409;SDS011;4744;52.576;13.568;2023-11-18T14:13:25;4.93;;;4.45;;
9409;SDS011;4744;52.576;13.568;2023-11-18T14:15:55;5.00;;;4.57;;
9409;SDS011;4744;52.576;13.568;2023-11-18T14:18:23;4.38;;;3.95;;
9409;SDS011;4744;52.576;13.568;2023-11-18T14:20:49;5.00;;;4.50;;
9409;SDS011;4744;52.576;13.568;2023-11-18T14:23:16;5.57;;;5.00;;
9409;SDS011;4744;52.576;13.568;2023-11-18T14:25:44;5.40;;;4.90;;
9409;SDS011;4744;52.576;13.568;2023-11-18T14:28:13;6.95;;;5.03;;
9409;SDS011;4744;52.576;13.568;2023-11-18T14:30:39;9.07;;;4.78;;
9409;SDS011;4744;52.576;13.568;2023-11-18T14:33:07;6.82;;;5.35;;
9409;SDS011;4744;52.576;13.568;2023-11-18T14:35:34;5.82;;;5.28;;
9409;SDS011;4744;52.576;13.568;2023-11-18T14:38:01;7.70;;;5.55;;
9409;SDS011;4744;52.576;13.568;2023-11-18T14:40:28;5.97;;;5.38;;
9409;SDS011;4744;52.576;13.568;2023-11-18T14:42:55;6.70;;;5.97;;
9409;SDS011;4744;52.576;13.568;2023-11-18T14:45:23;5.68;;;5.05;;
9409;SDS011;4744;52.576;13.568;2023-11-18T14:47:50;5.72;;;5.18;;
9409;SDS011;4744;52.576;13.568;2023-11-18T14:50:19;7.20;;;5.53;;
9409;SDS011;4744;52.576;13.568;2023-11-18T14:52:46;6.13;;;5.50;;
9409;SDS011;4744;52.576;13.568;2023-11-18T14:55:16;6.38;;;5.78;;
9409;SDS011;4744;52.576;13.568;2023-11-18T14:57:43;6.70;;;6.00;;
9409;SDS011;4744;52.576;13.568;2023-11-18T15:00:12;7.32;;;5.82;;
9409;SDS011;4744;52.576;13.568;2023-11-18T15:02:48;7.30;;;5.95;;
9409;SDS011;4744;52.576;13.568;2023-11-18T15:05:16;6.95;;;6.05;;
9409;SDS011;4744;52.576;13.568;2023-11-18T15:07:47;6.90;;;5.72;;
9409;SDS011;4744;52.576;13.568;2023-11-18T15:10:15;6.85;;;6.15;;
9409;SDS011;4744;52.576;13.568;2023-11-18T15:12:45;8.75;;;6.50;;
9409;SDS011;4744;52.576;13.568;2023-11-18T15:15:12;6.45;;;5.78;;
9409;SDS011;4744;52.576;13.568;2023-11-18T15:17:44;7.43;;;6.32;;
9409;SDS011;4744;52.576;13.568;2023-11-18T15:20:15;7.70;;;6.43;;
9409;SDS011;4744;52.576;13.568;2023-11-18T15:22:43;7.82;;;6.53;;
9409;SDS011;4744;52.576;13.568;2023-11-18T15:25:11;6.72;;;5.53;;
9409;SDS011;4744;52.576;13.568;2023-11-18T15:27:41;7.65;;;6.13;;